• Join FlightAware (Why Join?)
  • Login
  • US Flag 
11:02AM EDT


 

Airport Tracker/Info


-or-


 

Live Flight TrackerFlight Track Log ✈ AWE3921 ✈ 16-Apr-2013 ✈ KROC - KDCA

Flight Track Log - Related Links

Times and Time Zones

All times are in EDT time to prevent confusion due to time zone crossing. See the AWE3921 flight status page for this flight to view local times or setup timezone preferences in your user account.

Time Position Orientation Groundspeed Altitude Reporting Facility
EDT Latitude Longitude Course Direction KTS MPH feet Rate Location/Type
12:28PM 43.1014 -77.6942 192° South 140 161 1,500  Level Cleveland Center
12:29PM 43.0642 -77.7044 191° South 189 217 3,200 1,800 Climbing Cleveland Center
12:30PM 42.9917 -77.7164 187° South 262 302 4,800 2,340 Climbing Cleveland Center
12:31PM 42.8268 -77.7185 192° South  Level FlightAware Approximate
12:31PM 42.9333 -77.7219 184° South 289 333 7,900  Level Cleveland Center
12:32PM 42.7307 -77.7460 192° South  Level FlightAware Approximate
12:32PM 42.8628 -77.7281 184° South 281 323 11,100  Level Cleveland Center
12:33PM 42.6463 -77.7711 192° South  Level FlightAware Approximate
12:33PM 42.7983 -77.7422 189° South 268 308 13,400  Level Cleveland Center
12:34PM 42.5621 -77.7964 192° South  Level FlightAware Approximate
12:34PM 42.7197 -77.7628 191° South 273 314 15,200  Level Cleveland Center
12:35PM 42.6408 -77.7831 191° South 283 326 16,900 1,500 Climbing Cleveland Center
12:36PM 42.5539 -77.8067 191° South 301 346 18,200 1,320 Climbing Cleveland Center
12:37PM 42.4650 -77.8303 191° South 316 364 19,600 1,320 Climbing Cleveland Center
12:38PM 42.3717 -77.8542 191° South 331 381 20,900 1,200 Climbing Cleveland Center
12:39PM 42.2783 -77.8778 191° South 343 395 22,100 1,020 Climbing Cleveland Center
12:40PM 42.1811 -77.9017 190° South 354 407 23,000 420 Climbing Cleveland Center
12:41PM 42.0794 -77.9283 191° South 359 413 23,000  Level Cleveland Center
12:42PM 41.9800 -77.9547 191° South 364 419 23,000  Level Cleveland Center
12:43PM 41.8806 -77.9783 190° South 369 425 23,000  Level Cleveland Center
12:44PM 41.7808 -78.0017 190° South 369 425 23,000  Level Cleveland Center
12:45PM 41.6856 -78.0250 190° South 369 425 23,000  Level Cleveland Center
12:46PM 41.5756 -78.0544 191° South 369 425 23,000  Level Cleveland Center
12:47PM 41.4803 -78.0775 190° South 369 425 23,000  Level Cleveland Center
12:48PM 41.3808 -78.1008 190° South 369 425 23,000  Level Cleveland Center
12:48PM 41.3506 -78.1119 195° South 366 421 23,000  Level New York Center
12:49PM 41.2619 -78.1300 189° South 361 415 23,000  Level New York Center
12:50PM 41.1628 -78.1164 174° South 361 415 23,000  Level New York Center
12:51PM 41.0597 -78.0639 159° South 370 426 23,000  Level New York Center
12:52PM 40.9606 -78.0147 159° South 382 440 23,000 -180 Level New York Center
12:53PM 40.8672 -77.9389 148° Southeast 382 440 22,700 -720 Descending New York Center
12:54PM 40.7836 -77.8425 139° Southeast 387 445 21,600 -1,080 Descending New York Center
12:55PM 40.7014 -77.7492 139° Southeast 398 458 20,600 -1,020 Descending New York Center
12:57PM 40.6233 -77.6592 139° Southeast 392 451 19,600 -1,080 Descending New York Center
12:57PM 40.5372 -77.5631 140° Southeast 381 438 18,500 -840 Descending New York Center
12:59PM 40.4669 -77.4769 137° Southeast 381 438 18,000 -300 Descending New York Center
01:00PM 40.3808 -77.3814 140° Southeast 381 438 18,000  Level New York Center
01:00PM 40.3097 -77.3067 141° Southeast 381 438 18,000  Level New York Center
01:01PM 40.2253 -77.2117 139° Southeast 374 430 18,000  Level New York Center
01:03PM 40.1564 -77.1372 140° Southeast 369 425 18,000  Level New York Center
01:03PM 40.0719 -77.0428 139° Southeast 369 425 18,000  Level New York Center
01:04PM 39.9992 -76.9603 139° Southeast 374 430 18,000  Level New York Center
01:05PM 39.8969 -76.8781 148° Southeast 396 456 18,000 -300 Level New York Center
01:07PM 39.7983 -76.8481 167° South 394 453 17,500 -1,320 Descending New York Center
01:08PM 39.6167 -76.8000 168° South 383 441 14,700 -2,040 Descending Potomac TRACON
01:09PM 39.5167 -76.7667 166° South 364 419 12,300 -1,380 Descending Potomac TRACON
01:10PM 39.4167 -76.7333 166° South 350 403 12,000 -780 Descending Potomac TRACON
01:12PM 39.2333 -76.6833 168° South 340 391 10,000 -720 Descending Potomac TRACON
01:13PM 39.1500 -76.6833 180° South 285 328 10,000 -120 Level Potomac TRACON
01:14PM 39.1000 -76.7500 226° Southwest 283 326 9,800 -720 Descending Potomac TRACON
01:15PM 39.0500 -76.8167 226° Southwest 267 307 8,600 -1,320 Descending Potomac TRACON
01:16PM 39.0333 -76.9167 258° West 269 310 7,200 -1,680 Descending Potomac TRACON
01:17PM 39.0333 -77.0000 270° West 257 296 5,300 -1,800 Descending Potomac TRACON
01:18PM 39.0333 -77.1000 270° West 235 270 3,600 -1,260 Descending Potomac TRACON
01:19PM 39.0167 -77.1500 247° West 198 228 3,000 -840 Descending Potomac TRACON
01:20PM 38.9667 -77.1667 195° South 217 250 2,100 -900 Descending Potomac TRACON